| time (UTC) | temp C | wind direction | speed KPH | gust KPH | rain 1hr cm | rain 24hr cm | rain mn cm | humidity % | barometer mb |
| 20260905170332 | 33 | 180 | 3.2 | 12.9 | 0.00 | 0.13 | 0.00 | 44 | 1014.8 |
| 20260905164846 | 32 | 183 | 1.6 | 12.9 | 0.00 | 0.13 | 0.00 | 46 | 1014.7 |
| 20260905163337 | 32 | 183 | 4.8 | 12.9 | 0.00 | 0.13 | 0.00 | 48 | 1014.7 |
| 20260905161826 | 31 | 184 | 4.8 | 12.9 | 0.00 | 0.13 | 0.00 | 49 | 1014.7 |
| 20260905160337 | 31 | 189 | 8.0 | 12.9 | 0.00 | 0.13 | 0.00 | 51 | 1014.8 |
| 20260905154826 | 30 | 194 | 1.6 | 12.9 | 0.00 | 0.13 | 0.00 | 54 | 1014.7 |
| 20260905153317 | 29 | 186 | 6.4 | 16.1 | 0.00 | 0.13 | 0.00 | 56 | 1014.8 |
| 20260905151826 | 28 | 202 | 8.0 | 12.9 | 0.00 | 0.13 | 0.00 | 56 | 1014.8 |
| 20260905150339 | 28 | 192 | 4.8 | 11.3 | 0.00 | 0.13 | 0.00 | 57 | 1014.9 |
| 20260905144829 | 27 | 220 | 4.8 | 9.7 | 0.00 | 0.13 | 0.00 | 59 | 1014.9 |
| 20260905143322 | 27 | 168 | 4.8 | 17.7 | 0.00 | 0.13 | 0.00 | 61 | 1014.8 |
| 20260905141831 | 26 | 169 | 6.4 | 17.7 | 0.00 | 0.13 | 0.00 | 64 | 1014.7 |
| 20260905140325 | 25 | 186 | 8.0 | 17.7 | 0.00 | 0.13 | 0.00 | 66 | 1014.6 |
| 20260905134820 | 25 | 183 | 6.4 | 16.1 | 0.00 | 0.13 | 0.00 | 68 | 1014.6 |
| 20260905133351 | 24 | 181 | 4.8 | 14.5 | 0.00 | 0.13 | 0.00 | 70 | 1014.6 |
| 20260905131816 | 23 | 181 | 4.8 | 11.3 | 0.00 | 0.13 | 0.00 | 72 | 1014.5 |
| 20260905130309 | 23 | 182 | 4.8 | 9.7 | 0.00 | 0.13 | 0.00 | 73 | 1014.3 |
| 20260905124801 | 23 | 180 | 4.8 | 11.3 | 0.00 | 0.13 | 0.00 | 73 | 1014.2 |
| 20260905123313 | 23 | 174 | 4.8 | 11.3 | 0.00 | 0.13 | 0.00 | 73 | 1014.1 |
| 20260905121803 | 23 | 165 | 4.8 | 11.3 | 0.00 | 0.13 | 0.00 | 73 | 1013.8 |
| 20260905120317 | 23 | 180 | 3.2 | 6.4 | 0.00 | 0.13 | 0.00 | 73 | 1013.7 |
| 20260905114806 | 23 | 177 | 4.8 | 6.4 | 0.00 | 0.13 | 0.00 | 72 | 1013.6 |
| 20260905113318 | 23 | 182 | 4.8 | 11.3 | 0.00 | 0.13 | 0.00 | 72 | 1013.6 |
| 20260905111828 | 23 | 181 | 4.8 | 12.9 | 0.00 | 0.13 | 0.00 | 72 | 1013.7 |
| 20260905110317 | 23 | 175 | 3.2 | 8.0 | 0.00 | 0.13 | 0.00 | 71 | 1013.7 |
| 20260905104806 | 23 | 176 | 6.4 | 9.7 | 0.00 | 0.13 | 0.00 | 71 | 1013.7 |
| 20260905103303 | 23 | 177 | 3.2 | 8.0 | 0.00 | 0.13 | 0.00 | 70 | 1013.7 |
| 20260905101813 | 23 | 175 | 3.2 | 6.4 | 0.00 | 0.13 | 0.00 | 70 | 1013.7 |
| 20260905100308 | 23 | 177 | 3.2 | 6.4 | 0.00 | 0.13 | 0.00 | 70 | 1013.6 |
| 20260905094846 | 23 | 212 | 3.2 | 9.7 | 0.00 | 0.13 | 0.00 | 69 | 1013.6 |
| 20260905093332 | 23 | 180 | 4.8 | 8.0 | 0.00 | 0.13 | 0.00 | 68 | 1013.8 |
| 20260905091801 | 23 | 170 | 4.8 | 9.7 | 0.00 | 0.13 | 0.00 | 67 | 1013.7 |
| 20260905090315 | 24 | 179 | 4.8 | 9.7 | 0.00 | 0.13 | 0.00 | 66 | 1013.7 |
| 20260905084807 | 24 | 173 | 4.8 | 12.9 | 0.00 | 0.13 | 0.00 | 65 | 1013.7 |
| 20260905083300 | 24 | 176 | 3.2 | 14.5 | 0.00 | 0.13 | 0.00 | 64 | 1013.6 |
| 20260905081813 | 24 | 173 | 6.4 | 11.3 | 0.00 | 0.13 | 0.00 | 64 | 1013.5 |
| 20260905080326 | 24 | 164 | 6.4 | 14.5 | 0.00 | 0.13 | 0.00 | 64 | 1013.5 |
| 20260905074812 | 25 | 174 | 3.2 | 6.4 | 0.00 | 0.13 | 0.00 | 64 | 1013.5 |
| 20260905073306 | 25 | 175 | 1.6 | 3.2 | 0.00 | 0.13 | 0.00 | 62 | 1013.7 |
| 20260905071817 | 25 | 175 | 1.6 | 4.8 | 0.00 | 0.13 | 0.00 | 62 | 1013.7 |
| 20260905070313 | 25 | 177 | 3.2 | 6.4 | 0.00 | 0.13 | 0.00 | 61 | 1013.7 |
| 20260905064825 | 25 | 180 | 1.6 | 6.4 | 0.00 | 0.13 | 0.00 | 61 | 1013.6 |
| 20260905063300 | 25 | 178 | 3.2 | 11.3 | 0.00 | 0.13 | 0.00 | 60 | 1013.7 |
| 20260905061809 | 25 | 178 | 3.2 | 11.3 | 0.00 | 0.13 | 0.00 | 60 | 1013.7 |
| 20260905060322 | 26 | 172 | 3.2 | 9.7 | 0.00 | 0.13 | 0.00 | 59 | 1013.5 |
| 20260905054839 | 26 | 167 | 1.6 | 4.8 | 0.00 | 0.13 | 0.00 | 57 | 1013.4 |
| 20260905053311 | 26 | 172 | 4.8 | 11.3 | 0.00 | 0.13 | 0.00 | 56 | 1013.4 |
| 20260905051803 | 26 | 169 | 1.6 | 3.2 | 0.00 | 0.13 | 0.00 | 55 | 1013.4 |
| 20260905050314 | 26 | 167 | 3.2 | 8.0 | 0.00 | 0.13 | 0.00 | 54 | 1013.5 |
| 20260905044813 | 27 | 178 | 4.8 | 9.7 | 0.00 | 0.13 | 0.13 | 53 | 1013.4 |
| 20260905043307 | 27 | 175 | 6.4 | 9.7 | 0.00 | 0.13 | 0.13 | 53 | 1013.4 |
| 20260905041821 | 27 | 173 | 3.2 | 9.7 | 0.00 | 0.13 | 0.13 | 52 | 1013.4 |
| 20260905040314 | 27 | 180 | 4.8 | 11.3 | 0.00 | 0.13 | 0.13 | 52 | 1013.2 |
| 20260905034811 | 27 | 181 | 3.2 | 11.3 | 0.00 | 0.13 | 0.13 | 51 | 1013.3 |
| 20260905033324 | 28 | 171 | 3.2 | 4.8 | 0.00 | 0.13 | 0.13 | 50 | 1013.3 |
| 20260905031815 | 28 | 180 | 1.6 | 11.3 | 0.00 | 0.13 | 0.13 | 49 | 1013.2 |
| 20260905030326 | 28 | 177 | 4.8 | 11.3 | 0.00 | 0.13 | 0.13 | 48 | 1013.0 |
| 20260905024801 | 29 | 171 | 4.8 | 8.0 | 0.00 | 0.13 | 0.13 | 47 | 1013.0 |
| 20260905023314 | 29 | 170 | 3.2 | 14.5 | 0.00 | 0.13 | 0.13 | 47 | 1012.7 |
| 20260905021811 | 30 | 189 | 6.4 | 14.5 | 0.00 | 0.13 | 0.13 | 46 | 1012.4 |
| 20260905020304 | 30 | 192 | 8.0 | 16.1 | 0.00 | 0.13 | 0.13 | 45 | 1012.3 |
| 20260905014813 | 30 | 193 | 6.4 | 17.7 | 0.00 | 0.13 | 0.13 | 45 | 1012.2 |
| 20260905013306 | 30 | 187 | 8.0 | 16.1 | 0.00 | 0.13 | 0.13 | 45 | 1012.0 |
| 20260905011801 | 30 | 179 | 8.0 | 16.1 | 0.00 | 0.13 | 0.13 | 44 | 1011.9 |
| 20260905010311 | 31 | 194 | 8.0 | 14.5 | 0.00 | 0.13 | 0.13 | 44 | 1011.9 |
| 20260905004810 | 31 | 182 | 9.7 | 19.3 | 0.00 | 0.13 | 0.13 | 43 | 1011.9 |
| 20260905003302 | 31 | 180 | 8.0 | 19.3 | 0.00 | 0.13 | 0.13 | 42 | 1011.8 |
| 20260905001813 | 32 | 177 | 8.0 | 17.7 | 0.00 | 0.13 | 0.13 | 42 | 1011.9 |
| 20260905000304 | 32 | 175 | 9.7 | 20.9 | 0.00 | 0.13 | 0.13 | 42 | 1011.8 |
| 20260904234803 | 33 | 194 | 12.9 | 27.4 | 0.00 | 0.13 | 0.13 | 41 | 1011.8 |
| 20260904233309 | 34 | 220 | 11.3 | 29.0 | 0.00 | 0.13 | 0.13 | 40 | 1011.6 |
| 20260904231802 | 35 | 202 | 11.3 | 19.3 | 0.00 | 0.13 | 0.13 | 38 | 1011.2 |
| 20260904230300 | 35 | 182 | 8.0 | 17.7 | 0.00 | 0.13 | 0.13 | 37 | 1010.6 |
| 20260904224812 | 35 | 76 | 4.8 | 14.5 | 0.03 | 0.13 | 0.13 | 36 | 1010.3 |
| 20260904223300 | 35 | 65 | 3.2 | 16.1 | 0.10 | 0.13 | 0.13 | 39 | 1010.5 |
| 20260904221833 | 33 | 154 | 3.2 | 16.1 | 0.13 | 0.13 | 0.13 | 44 | 1010.6 |
| 20260904220301 | 31 | 186 | 8.0 | 19.3 | 0.13 | 0.13 | 0.13 | 56 | 1010.7 |
| 20260904214812 | 30 | 43 | 17.7 | 27.4 | 0.10 | 0.10 | 0.10 | 53 | 1010.6 |
| 20260904213303 | 34 | 63 | 16.1 | 30.6 | 0.03 | 0.03 | 0.03 | 43 | 1010.9 |
| 20260904211816 | 37 | 188 | 4.8 | 20.9 | 0.00 | 0.00 | 0.00 | 33 | 1010.8 |
| 20260904210325 | 37 | 175 | 9.7 | 17.7 | 0.00 | 0.00 | 0.00 | 34 | 1010.7 |
| 20260904204816 | 37 | 166 | 6.4 | 12.9 | 0.00 | 0.00 | 0.00 | 32 | 1011.2 |
| 20260904203307 | 36 | 214 | 4.8 | 12.9 | 0.00 | 0.00 | 0.00 | 34 | 1011.6 |
| 20260904201801 | 36 | 203 | 8.0 | 17.7 | 0.00 | 0.00 | 0.00 | 34 | 1012.0 |
| 20260904200313 | 36 | 193 | 6.4 | 12.9 | 0.00 | 0.00 | 0.00 | 37 | 1012.3 |
| 20260904194806 | 36 | 183 | 3.2 | 12.9 | 0.00 | 0.00 | 0.00 | 37 | 1012.4 |
| 20260904193337 | 35 | 192 | 4.8 | 19.3 | 0.00 | 0.00 | 0.00 | 39 | 1012.5 |
| 20260904191811 | 35 | 183 | 6.4 | 16.1 | 0.00 | 0.00 | 0.00 | 40 | 1012.6 |
| 20260904190302 | 35 | 183 | 9.7 | 16.1 | 0.00 | 0.00 | 0.00 | 41 | 1012.9 |
| 20260904184836 | 35 | 180 | 9.7 | 19.3 | 0.00 | 0.00 | 0.00 | 41 | 1013.0 |
| 20260904183306 | 35 | 175 | 8.0 | 16.1 | 0.00 | 0.00 | 0.00 | 42 | 1013.0 |
| 20260904181816 | 34 | 181 | 14.5 | 29.0 | 0.00 | 0.00 | 0.00 | 42 | 1013.1 |
| 20260904180306 | 33 | 186 | 8.0 | 19.3 | 0.00 | 0.00 | 0.00 | 43 | 1013.4 |
| 20260904174816 | 33 | 198 | 9.7 | 19.3 | 0.00 | 0.00 | 0.00 | 45 | 1013.5 |
| 20260904173307 | 33 | 189 | 11.3 | 20.9 | 0.00 | 0.00 | 0.00 | 45 | 1013.7 |
| 20260904171839 | 32 | 213 | 8.0 | 19.3 | 0.00 | 0.00 | 0.00 | 47 | 1013.9 |